Main page
METAR-TAF:

METAR-TAF

Airports :

MOD St Athan

St Athan, Wales

latitude: 51-24N, longitude: 003-26W, elevation: 50 m

Current weather observation

The report was made 1 hour and 4 minutes ago, at 06:50 UTC
Wind 4 kt from the Northwest
Temperature 6°C
Humidity 81%
Pressure 1032 hPa
Visibility 10 km or more

METAR: EGDX 240650Z AUTO 31004KT 9999 NCD 06/03 Q1032

Time: 07:54 (07:54 UTC)

Forecast

The report was made 2 hours and 1 minutes ago, at 05:53 UTC
Forecast valid from 24 at 07 UTC to 24 at 15 UTC
Wind 5 kt from the West/Northwest
Visibility 10 km or more
Few clouds at a height of 3000 ft

TAF: EGDX 240553Z 2407/2415 30005KT 9999 FEW030

Weather observations and forecasts of more than 4000 airports (METAR and TAF reports).

The available stations are represented by yellow and red dots on the map.

Hover mouse over dot to see the name of the station.

Then click to see weather observations and forecasts.

To change the map : click on the green buttons with a black cross to zoom in, on the green button with a dash to zoom out, or on the green arrows for adjacent maps.


METAR-TAF: